Home > Products > Valid Products > TAF

000
FTUS41 KAKQ 301627 AAB
TAFRIC
TAF AMD
KRIC 301627Z 3016/0112 08005KT P6SM SCT012 OVC020
     FM302000 10005KT P6SM OVC025
     FM010600 13005KT 4SM -RA BR OVC015=



000
FTUS41 KAKQ 301554 AAB
TAFECG
TAF AMD
KECG 301554Z 3016/0112 04009KT P6SM OVC015
     FM302100 06009KT P6SM OVC035
     FM010300 09006KT P6SM OVC020=



000
FTUS41 KAKQ 301554 AAB
TAFECG
TAF AMD
KECG 301554Z 3016/0112 04009KT P6SM OVC015
     FM302100 06009KT P6SM OVC035
     FM010300 09006KT P6SM OVC020=



000
FTUS41 KAKQ 301553 AAB
TAFORF
TAF AMD
KORF 301553Z 3016/0112 06011KT P6SM SCT015 OVC020
     FM302000 07008KT P6SM BKN025
     FM010800 13008KT P6SM OVC015=



000
FTUS41 KAKQ 301552 AAC
TAFSBY
TAF AMD
KSBY 301552Z 3016/0112 06007KT P6SM BKN015
     FM302100 09004KT P6SM BKN025
     FM010800 11005KT P6SM -RA OVC025=



000
FTUS41 KAKQ 301457 AAA
TAFORF
TAF AMD
KORF 301457Z 3015/0112 05008KT P6SM SCT009 OVC012
      TEMPO 3015/3017 BKN009
     FM301900 06011KT P6SM SCT009 OVC015
     FM302200 07008KT P6SM OVC025
     FM010800 13008KT P6SM OVC015=



000
FTUS41 KAKQ 301456 AAB
TAFSBY
TAF AMD
KSBY 301456Z 3015/0112 05007KT P6SM OVC012
      TEMPO 3015/3017 BKN008
     FM301800 08007KT P6SM OVC015
     FM302200 09004KT P6SM OVC025
     FM010800 11005KT P6SM -RA OVC025=



000
FTUS41 KAKQ 301456 AAA
TAFRIC
TAF AMD
KRIC 301456Z 3015/0112 08005KT P6SM SCT010 OVC015
     FM302100 10005KT P6SM OVC025
     FM010600 13005KT 4SM -RA BR OVC015=



000
FTUS41 KAKQ 301456 AAA
TAFRIC
TAF AMD
KRIC 301456Z 3015/0112 08005KT P6SM SCT010 OVC015
     FM302100 10005KT P6SM OVC025
     FM010600 13005KT 4SM -RA BR OVC015=



000
FTUS41 KAKQ 301326 AAA
TAFECG
TAF AMD
KECG 301326Z 3013/0112 04009KT P6SM OVC010
      TEMPO 3013/3016 BKN008
     FM301800 06009KT P6SM OVC015
     FM302100 06009KT P6SM OVC035
     FM010300 09006KT P6SM OVC020=



000
FTUS41 KAKQ 301313 AAA
TAFSBY
TAF AMD
KSBY 301313Z 3013/0112 02007KT 5SM BR OVC007
     FM301500 05007KT P6SM OVC012
      TEMPO 3015/3017 BKN008
     FM301800 08007KT P6SM OVC015
     FM302200 09004KT P6SM OVC025
     FM010800 11005KT P6SM -RA OVC025=



000
FTUS41 KAKQ 301134
TAFECG
TAF
KECG 301134Z 3012/0112 01008KT P6SM OVC006
     FM301500 05009KT P6SM OVC008
     FM301800 06009KT P6SM OVC015
     FM302100 06009KT P6SM OVC035
     FM010300 09006KT P6SM OVC020=



000
FTUS41 KAKQ 301134
TAFSBY
TAF
KSBY 301134Z 3012/0112 02007KT 3SM BR OVC004
     FM301500 05007KT P6SM OVC012
      TEMPO 3015/3017 BKN008
     FM301800 08007KT P6SM OVC015
     FM302200 09004KT P6SM OVC025
     FM010800 11005KT P6SM -RA OVC025=



000
FTUS41 KAKQ 301134
TAFRIC
TAF
KRIC 301134Z 3012/0112 05005KT P6SM OVC012
      TEMPO 3012/3016 BKN008
     FM301800 08005KT P6SM SCT010 OVC015
     FM302100 10005KT P6SM OVC025
     FM010600 13005KT 4SM -RA BR OVC015=



000
FTUS41 KAKQ 301134
TAFORF
TAF
KORF 301134Z 3012/0112 05008KT P6SM OVC008
     FM301900 06011KT P6SM SCT009 OVC015
     FM302200 07008KT P6SM OVC025
     FM010800 13008KT P6SM OVC015=



000
FTUS41 KAKQ 301134
TAFPHF
TAF
KPHF 301134Z 3012/0112 03004KT P6SM OVC010
     FM301900 08009KT P6SM SCT012 OVC025
     FM010800 13005KT 4SM -RA BR OVC015=



000
FTUS41 KAKQ 300925 AAA
TAFECG
TAF AMD
KECG 300925Z 3009/0106 02009KT P6SM OVC008
     FM301500 05009KT P6SM OVC008
     FM301800 06009KT P6SM OVC015=



000
FTUS41 KAKQ 300924 AAA
TAFPHF
TAF AMD
KPHF 300924Z 3009/0106 01003KT P6SM OVC009
     FM301500 05007KT P6SM OVC012
     FM301900 08009KT P6SM SCT012 OVC020=



000
FTUS41 KAKQ 300920 AAA
TAFORF
TAF AMD
KORF 300920Z 3009/0106 04008KT P6SM OVC008
     FM301900 06011KT P6SM SCT009 OVC015=



000
FTUS41 KAKQ 300912 AAA
TAFRIC
TAF AMD
KRIC 300912Z 3009/0106 02005KT P6SM OVC007
     FM301400 06005KT P6SM OVC008
     FM301800 08007KT P6SM SCT010 OVC015
     FM302100 10005KT P6SM OVC025=



000
FTUS41 KAKQ 300531
TAFORF
TAF
KORF 300531Z 3006/0106 04008KT P6SM OVC006
     FM300900 04007KT 4SM BR OVC004
     FM301500 05010KT 5SM BR OVC006
     FM301900 06011KT P6SM SCT009 OVC015=



000
FTUS41 KAKQ 300531
TAFRIC
TAF
KRIC 300531Z 3006/0106 04005KT P6SM OVC006
     FM300900 04005KT 5SM BR OVC004
     FM301400 06005KT P6SM OVC008
     FM301800 08007KT P6SM SCT010 OVC015
     FM302100 10005KT P6SM OVC025=



000
FTUS41 KAKQ 300531
TAFECG
TAF
KECG 300531Z 3006/0106 02010KT P6SM OVC008
     FM300900 01008KT P6SM OVC004
     FM301500 05009KT P6SM OVC008
     FM301800 06009KT P6SM OVC015=



000
FTUS41 KAKQ 300531
TAFSBY
TAF
KSBY 300531Z 3006/0106 02010KT P6SM OVC005
     FM300900 02006KT 4SM BR OVC003
     FM301500 05008KT P6SM OVC015
     FM301900 08008KT P6SM SCT015 BKN030=



000
FTUS41 KAKQ 300531
TAFPHF
TAF
KPHF 300531Z 3006/0106 03005KT P6SM OVC009
     FM300800 03005KT 4SM BR OVC004
     FM301500 05007KT P6SM OVC007
     FM301900 08009KT P6SM SCT009 OVC020=



000
FTUS41 KAKQ 300531
TAFPHF
TAF
KPHF 300531Z 3006/0106 03005KT P6SM OVC009
     FM300800 03005KT 4SM BR OVC004
     FM301500 05007KT P6SM OVC007
     FM301900 08009KT P6SM SCT009 OVC020=



000
FTUS41 KAKQ 300531
TAFSBY
TAF
KSBY 300531Z 3006/0106 02010KT P6SM OVC005
     FM300900 02006KT 4SM BR OVC003
     FM301500 05008KT P6SM OVC015
     FM301900 08008KT P6SM SCT015 BKN030=



000
FTUS41 KAKQ 300531
TAFORF
TAF
KORF 300531Z 3006/0106 04008KT P6SM OVC006
     FM300900 04007KT 4SM BR OVC004
     FM301500 05010KT 5SM BR OVC006
     FM301900 06011KT P6SM SCT009 OVC015=



000
FTUS41 KAKQ 300531
TAFRIC
TAF
KRIC 300531Z 3006/0106 04005KT P6SM OVC006
     FM300900 04005KT 5SM BR OVC004
     FM301400 06005KT P6SM OVC008
     FM301800 08007KT P6SM SCT010 OVC015
     FM302100 10005KT P6SM OVC025=



000
FTUS41 KAKQ 300531
TAFECG
TAF
KECG 300531Z 3006/0106 02010KT P6SM OVC008
     FM300900 01008KT P6SM OVC004
     FM301500 05009KT P6SM OVC008
     FM301800 06009KT P6SM OVC015=



000
FTUS41 KAKQ 300108 AAA
TAFPHF
TAF AMD
KPHF 300108Z 3001/3024 02003KT P6SM OVC011
     FM300200 02003KT P6SM OVC009
     FM300400 04004KT 2SM -DZ BR OVC003
     FM301500 05007KT 5SM BR OVC007
     FM301900 08009KT 6SM -RA BR SCT009 OVC015=



000
FTUS41 KAKQ 300106 AAA
TAFORF
TAF AMD
KORF 300106Z 3001/3024 08007KT 3SM BR BKN005 OVC012
     FM300400 03008KT 2SM -DZ BR OVC003
     FM301500 05010KT 5SM BR OVC006
     FM301900 06011KT P6SM -RA SCT009 OVC015=



000
FTUS41 KAKQ 300106 AAA
TAFORF
TAF AMD
KORF 300106Z 3001/3024 08007KT 3SM BR BKN005 OVC012
     FM300400 03008KT 2SM -DZ BR OVC003
     FM301500 05010KT 5SM BR OVC006
     FM301900 06011KT P6SM -RA SCT009 OVC015=



000
FTUS41 KAKQ 292320
TAFSBY
TAF
KSBY 292320Z 3000/3024 05010KT P6SM BKN009 OVC015
     FM300200 02008KT 3SM BR OVC006
     FM300500 02007KT 1SM -DZ BR OVC003
     FM301500 05008KT P6SM OVC015
     FM301900 08008KT P6SM SCT015 BKN030=



000
FTUS41 KAKQ 292320
TAFORF
TAF
KORF 292320Z 3000/3024 03008KT P6SM OVC010
     FM300200 05005KT 6SM BR OVC007
     FM300400 03008KT 2SM -DZ BR OVC003
     FM301500 05010KT 5SM BR OVC006
     FM301900 06011KT P6SM -RA SCT009 OVC015=



000
FTUS41 KAKQ 292320
TAFECG
TAF
KECG 292320Z 3000/3024 36009KT P6SM OVC010
     FM300200 02005KT 5SM BR OVC007
     FM300600 04009KT 3SM BR OVC004
     FM301500 05009KT P6SM -RA OVC012=



000
FTUS41 KAKQ 292320
TAFRIC
TAF
KRIC 292320Z 3000/3024 05003KT P6SM OVC017
     FM300200 05003KT P6SM OVC008
     FM300600 07004KT 2SM -DZ BR OVC005
     FM301400 06005KT P6SM OVC008
     FM301900 08007KT 5SM -RA BR SCT010 OVC015=



000
FTUS41 KAKQ 292320
TAFPHF
TAF
KPHF 292320Z 3000/3024 06004KT P6SM OVC012
     FM300100 05003KT 5SM BR OVC004
     FM300400 04004KT 2SM -DZ BR OVC003
     FM301500 05007KT 5SM BR OVC007
     FM301900 08009KT 6SM -RA BR SCT009 OVC015=



000
FTUS41 KAKQ 291946 AAA
TAFSBY
TAF AMD
KSBY 291946Z 2920/3018 05006KT 3SM BR BKN008 OVC012
      TEMPO 2920/2922 OVC012
     FM300200 02008KT 5SM BR OVC003
     FM300500 02007KT 2SM -DZ BR OVC003
     FM301500 05008KT P6SM OVC015=



000
FTUS41 KAKQ 291840 AAA
TAFECG
TAF AMD
KECG 291840Z 2919/3018 01007KT P6SM OVC009
      TEMPO 2919/2921 OVC012
     FM300300 02005KT 5SM BR OVC005
     FM301500 04009KT P6SM OVC007=



000
FTUS41 KAKQ 291725
TAFSBY
TAF
KSBY 291725Z 2918/3018 05006KT 3SM BR BKN006 OVC012
     FM300200 02008KT 5SM BR OVC003
     FM300500 02007KT 2SM -DZ BR OVC003
     FM301500 05008KT P6SM OVC015=



000
FTUS41 KAKQ 291725
TAFPHF
TAF
KPHF 291725Z 2918/3018 05006KT P6SM OVC009
     FM300100 05003KT 5SM BR OVC004
     FM300400 04004KT 2SM -DZ BR OVC003
     FM301500 05007KT 5SM BR OVC007=



000
FTUS41 KAKQ 291725
TAFORF
TAF
KORF 291725Z 2918/3018 04008KT 5SM BR OVC006
     FM300200 05005KT P6SM OVC004
     FM300400 03008KT 2SM -DZ BR OVC003
     FM301500 05010KT 5SM BR OVC006=



000
FTUS41 KAKQ 291725
TAFECG
TAF
KECG 291725Z 2918/3018 01007KT P6SM OVC009
     FM300300 02005KT 5SM BR OVC005
     FM301500 04009KT P6SM OVC007=



000
FTUS41 KAKQ 291725
TAFRIC
TAF
KRIC 291725Z 2918/3018 34005KT P6SM BKN008 OVC030
      TEMPO 2918/2920 BKN012
     FM300200 05003KT P6SM OVC008
     FM300600 07004KT 2SM -DZ BR OVC005
     FM301400 06005KT P6SM OVC008=



000
FTUS41 KAKQ 291408 AAA
TAFPHF
TAF AMD
KPHF 291408Z 2914/3012 04006KT 5SM BR OVC005
      TEMPO 2914/2916 3SM BR OVC004
     FM291800 05006KT P6SM BKN015
     FM300100 05003KT P6SM OVC004=



000
FTUS41 KAKQ 291408 AAA
TAFPHF
TAF AMD
KPHF 291408Z 2914/3012 04006KT 5SM BR OVC005
      TEMPO 2914/2916 3SM BR OVC004
     FM291800 05006KT P6SM BKN015
     FM300100 05003KT P6SM OVC004=



000
FTUS41 KAKQ 291407 AAB
TAFORF
TAF AMD
KORF 291407Z 2914/3012 04008KT 5SM BR OVC006
      TEMPO 2914/2916 3SM BR OVC004
     FM291900 05006KT P6SM BKN015
     FM300200 05005KT P6SM OVC004=



000
FTUS41 KAKQ 291406 AAA
TAFSBY
TAF AMD
KSBY 291406Z 2914/3012 05006KT 4SM BR OVC006
     FM300200 02008KT 5SM BR OVC003=



000
FTUS41 KAKQ 291406 AAA
TAFRIC
TAF AMD
KRIC 291406Z 2914/3012 02009KT P6SM OVC006
      TEMPO 2914/2916 2SM BR
     FM291800 34005KT P6SM BKN015
     FM300200 05003KT P6SM OVC008=



000
FTUS41 KAKQ 291331 AAA
TAFORF
TAF AMD
KORF 291331Z 2914/3012 04008KT 6SM BR OVC006
     FM291900 05006KT P6SM BKN015
     FM300200 05005KT P6SM OVC004=



000
FTUS41 KAKQ 291133
TAFECG
TAF
KECG 291133Z 2912/3012 02009KT P6SM OVC003
     FM291400 02008KT P6SM OVC005
     FM291700 01007KT P6SM BKN020
     FM300400 02005KT P6SM OVC005=



000
FTUS41 KAKQ 291133
TAFSBY
TAF
KSBY 291133Z 2912/3012 04009KT 2SM BR OVC005
     FM291400 05006KT P6SM OVC005
     FM300200 02008KT 5SM BR OVC003=



000
FTUS41 KAKQ 291133
TAFORF
TAF
KORF 291133Z 2912/3012 05009KT 2SM BR OVC003
     FM291400 04008KT P6SM OVC005
     FM291900 05006KT P6SM BKN015
     FM300200 05005KT P6SM OVC004=



000
FTUS41 KAKQ 291133
TAFRIC
TAF
KRIC 291133Z 2912/3012 02009KT P6SM OVC005
      TEMPO 2912/2914 2SM BR
     FM291800 34005KT P6SM BKN015
     FM300200 05003KT P6SM OVC008=



000
FTUS41 KAKQ 291133
TAFPHF
TAF
KPHF 291133Z 2912/3012 04005KT 2SM BR OVC003
     FM291400 04006KT P6SM OVC005
     FM291800 05006KT P6SM BKN015
     FM300100 05003KT P6SM OVC004=



000
FTUS41 KAKQ 291133
TAFECG
TAF
KECG 291133Z 2912/3012 02009KT P6SM OVC003
     FM291400 02008KT P6SM OVC005
     FM291700 01007KT P6SM BKN020
     FM300400 02005KT P6SM OVC005=



000
FTUS41 KAKQ 291133
TAFORF
TAF
KORF 291133Z 2912/3012 05009KT 2SM BR OVC003
     FM291400 04008KT P6SM OVC005
     FM291900 05006KT P6SM BKN015
     FM300200 05005KT P6SM OVC004=



000
FTUS41 KAKQ 291133
TAFRIC
TAF
KRIC 291133Z 2912/3012 02009KT P6SM OVC005
      TEMPO 2912/2914 2SM BR
     FM291800 34005KT P6SM BKN015
     FM300200 05003KT P6SM OVC008=



000
FTUS41 KAKQ 291133
TAFPHF
TAF
KPHF 291133Z 2912/3012 04005KT 2SM BR OVC003
     FM291400 04006KT P6SM OVC005
     FM291800 05006KT P6SM BKN015
     FM300100 05003KT P6SM OVC004=



000
FTUS41 KAKQ 291133
TAFSBY
TAF
KSBY 291133Z 2912/3012 04009KT 2SM BR OVC005
     FM291400 05006KT P6SM OVC005
     FM300200 02008KT 5SM BR OVC003=



000
FTUS41 KAKQ 291008 AAA
TAFORF
TAF AMD
KORF 291008Z 2910/3006 05009KT 4SM BR OVC002
     FM291200 04008KT 4SM BR OVC003
     FM291400 04008KT P6SM OVC005
     FM291800 05006KT P6SM BKN015 OVC040
     FM300000 06005KT P6SM OVC008=



000
FTUS41 KAKQ 291008 AAA
TAFECG
TAF AMD
KECG 291008Z 2910/3006 02009KT 1 1/2SM BR OVC002
     FM291200 02006KT 4SM BR OVC003
     FM291400 02006KT P6SM OVC008
     FM291600 01007KT P6SM BKN020 OVC040
     FM300200 05006KT P6SM OVC008=



000
FTUS41 KAKQ 290844 AAA
TAFSBY
TAF AMD
KSBY 290844Z 2909/3006 03007KT P6SM OVC005
     FM291000 05005KT 2SM BR OVC003
     FM291600 07006KT P6SM OVC005=



000
FTUS41 KAKQ 290540
TAFECG
TAF
KECG 290540Z 2906/3006 02009KT P6SM OVC005
     FM290800 02006KT 4SM BR OVC003
     FM291400 02006KT P6SM OVC008
     FM291600 01007KT P6SM BKN020 OVC040
     FM300200 05006KT P6SM OVC008=



000
FTUS41 KAKQ 290540
TAFORF
TAF
KORF 290540Z 2906/3006 04005KT P6SM OVC006
     FM290800 04008KT 4SM BR OVC003
     FM291400 04008KT P6SM OVC005
     FM291800 05006KT P6SM BKN015 OVC040
     FM300000 06005KT P6SM OVC008=



000
FTUS41 KAKQ 290540
TAFPHF
TAF
KPHF 290540Z 2906/3006 04005KT P6SM OVC005
     FM290800 04005KT 4SM BR OVC003
     FM291400 04006KT P6SM OVC005
     FM291800 05006KT P6SM BKN015 OVC040
     FM300100 05003KT P6SM OVC008=



000
FTUS41 KAKQ 290540
TAFSBY
TAF
KSBY 290540Z 2906/3006 05005KT 4SM BR OVC004
     FM290800 05005KT 2SM BR OVC003
     FM291600 07006KT P6SM OVC005=



000
FTUS41 KAKQ 290540
TAFRIC
TAF
KRIC 290540Z 2906/3006 02005KT P6SM OVC005
     FM290800 03003KT 4SM BR OVC003
     FM291100 05004KT 2SM BR OVC003
     FM291400 01004KT P6SM OVC006
     FM291900 34003KT P6SM BKN015 OVC050
     FM300200 05003KT P6SM OVC008=



000
FTUS41 KAKQ 290540
TAFECG
TAF
KECG 290540Z 2906/3006 02009KT P6SM OVC005
     FM290800 02006KT 4SM BR OVC003
     FM291400 02006KT P6SM OVC008
     FM291600 01007KT P6SM BKN020 OVC040
     FM300200 05006KT P6SM OVC008=



000
FTUS41 KAKQ 290540
TAFRIC
TAF
KRIC 290540Z 2906/3006 02005KT P6SM OVC005
     FM290800 03003KT 4SM BR OVC003
     FM291100 05004KT 2SM BR OVC003
     FM291400 01004KT P6SM OVC006
     FM291900 34003KT P6SM BKN015 OVC050
     FM300200 05003KT P6SM OVC008=



000
FTUS41 KAKQ 290540
TAFORF
TAF
KORF 290540Z 2906/3006 04005KT P6SM OVC006
     FM290800 04008KT 4SM BR OVC003
     FM291400 04008KT P6SM OVC005
     FM291800 05006KT P6SM BKN015 OVC040
     FM300000 06005KT P6SM OVC008=



000
FTUS41 KAKQ 290540
TAFSBY
TAF
KSBY 290540Z 2906/3006 05005KT 4SM BR OVC004
     FM290800 05005KT 2SM BR OVC003
     FM291600 07006KT P6SM OVC005=



000
FTUS41 KAKQ 290540
TAFPHF
TAF
KPHF 290540Z 2906/3006 04005KT P6SM OVC005
     FM290800 04005KT 4SM BR OVC003
     FM291400 04006KT P6SM OVC005
     FM291800 05006KT P6SM BKN015 OVC040
     FM300100 05003KT P6SM OVC008=



000
FTUS41 KAKQ 290435 AAD
TAFECG
TAF AMD
KECG 290435Z 2905/2924 03009KT 1SM BR OVC002
     FM291200 02006KT P6SM OVC008
     FM291600 01007KT P6SM OVC025=



000
FTUS41 KAKQ 290434 AAB
TAFSBY
TAF AMD
KSBY 290434Z 2905/2924 06007KT P6SM OVC004
     FM290600 05005KT 2SM BR OVC003
     FM290700 04005KT 1/2SM FG OVC002
     FM291300 06006KT 3SM BR OVC004
     FM291800 08005KT P6SM OVC012=



000
FTUS41 KAKQ 290434 AAB
TAFSBY
TAF AMD
KSBY 290434Z 2905/2924 06007KT P6SM OVC004
     FM290600 05005KT 2SM BR OVC003
     FM290700 04005KT 1/2SM FG OVC002
     FM291300 06006KT 3SM BR OVC004
     FM291800 08005KT P6SM OVC012=



000
FTUS41 KAKQ 290433 AAB
TAFRIC
TAF AMD
KRIC 290433Z 2905/2924 03009KT P6SM OVC005
     FM290600 05006KT 2SM -RA BR OVC003
     FM290800 03003KT 1/2SM FG OVC001
     FM291300 05004KT 1SM BR OVC003
     FM291800 02003KT P6SM OVC015=



000
FTUS41 KAKQ 290433 AAB
TAFRIC
TAF AMD
KRIC 290433Z 2905/2924 03009KT P6SM OVC005
     FM290600 05006KT 2SM -RA BR OVC003
     FM290800 03003KT 1/2SM FG OVC001
     FM291300 05004KT 1SM BR OVC003
     FM291800 02003KT P6SM OVC015=



000
FTUS41 KAKQ 290433 AAB
TAFORF
TAF AMD
KORF 290433Z 2905/2924 01012KT 2SM +TSRA BKN006CB OVC012
     FM290530 05008KT 4SM -SHRA VCTS OVC006CB
     FM290600 05008KT 2SM BR OVC002
     FM291200 03008KT 6SM BR OVC003
     FM291700 05006KT P6SM OVC015=



000
FTUS41 KAKQ 290354 AAB
TAFPHF
TAF AMD
KPHF 290354Z 2904/2924 VRB12KT 1SM +TSRA BR VCSH BKN011CB OVC040
     FM290500 07008KT 3SM TSRA BKN006CB OVC011
     FM290700 05005KT 2SM BR OVC002
     FM291400 04004KT 4SM BR OVC005
     FM291800 05006KT P6SM OVC012=



000
FTUS41 KAKQ 290354 AAB
TAFPHF
TAF AMD
KPHF 290354Z 2904/2924 VRB12KT 1SM +TSRA BR VCSH BKN011CB OVC040
     FM290500 07008KT 3SM TSRA BKN006CB OVC011
     FM290700 05005KT 2SM BR OVC002
     FM291400 04004KT 4SM BR OVC005
     FM291800 05006KT P6SM OVC012=



000
FTUS41 KAKQ 290317 AAC
TAFECG
TAF AMD
KECG 290317Z 2903/2924 03009KT 1SM BR OVC002
      TEMPO 2903/2906 1/2SM FG
     FM291200 02006KT P6SM OVC008
     FM291600 01007KT P6SM OVC025=



000
FTUS41 KAKQ 290317 AAC
TAFECG
TAF AMD
KECG 290317Z 2903/2924 03009KT 1SM BR OVC002
      TEMPO 2903/2906 1/2SM FG
     FM291200 02006KT P6SM OVC008
     FM291600 01007KT P6SM OVC025=



000
FTUS41 KAKQ 290307 AAA
TAFPHF
TAF AMD
KPHF 290307Z 2903/2924 04008KT 5SM -RA BR VCSH OVC004
      TEMPO 2905/2907 VRB15KT 2SM +TSRA BKN006 OVC025CB
     FM290700 05005KT 2SM BR OVC002
     FM291400 04004KT 4SM BR OVC005
     FM291800 05006KT P6SM OVC012=



000
FTUS41 KAKQ 290304 AAA
TAFSBY
TAF AMD
KSBY 290304Z 2903/2924 06007KT 6SM BR OVC004
      TEMPO 2903/2905 3SM -RA BR
     FM290500 05005KT 2SM BR OVC003
     FM290700 04005KT 1/2SM FG OVC002
     FM291300 06006KT 3SM BR OVC004
     FM291800 08005KT P6SM OVC012=



000
FTUS41 KAKQ 290304 AAA
TAFSBY
TAF AMD
KSBY 290304Z 2903/2924 06007KT 6SM BR OVC004
      TEMPO 2903/2905 3SM -RA BR
     FM290500 05005KT 2SM BR OVC003
     FM290700 04005KT 1/2SM FG OVC002
     FM291300 06006KT 3SM BR OVC004
     FM291800 08005KT P6SM OVC012=



000
FTUS41 KAKQ 290222 AAB
TAFECG
TAF AMD
KECG 290222Z 2902/2924 03009KT 1SM BR OVC002
      TEMPO 2902/2905 1/2SM +TSRA FG OVC004CB
     FM290500 05008KT 2SM BR OVC002
     FM291200 02006KT P6SM OVC008
     FM291600 01007KT P6SM OVC025=



000
FTUS41 KAKQ 290222 AAB
TAFECG
TAF AMD
KECG 290222Z 2902/2924 03009KT 1SM BR OVC002
      TEMPO 2902/2905 1/2SM +TSRA FG OVC004CB
     FM290500 05008KT 2SM BR OVC002
     FM291200 02006KT P6SM OVC008
     FM291600 01007KT P6SM OVC025=



000
FTUS41 KAKQ 290212 AAA
TAFRIC
TAF AMD
KRIC 290212Z 2902/2924 06007KT 3SM -RA BR OVC005
      TEMPO 2902/2904 1SM +TSRA BR OVC003CB
     FM290400 05006KT 2SM -RA BR OVC003
     FM290800 03003KT 1/2SM FG OVC001
     FM291300 05004KT 1SM BR OVC003
     FM291800 02003KT P6SM OVC015=



000
FTUS41 KAKQ 290208 AAA
TAFORF
TAF AMD
KORF 290208Z 2902/2924 05009KT 1SM BR VCSH OVC002
      TEMPO 2903/2905 3SM +TSRA BR OVC004CB
     FM290500 05008KT 2SM -SHRA BR OVC002
     FM291200 03008KT 6SM BR OVC003
     FM291700 05006KT P6SM OVC015=



000
FTUS41 KAKQ 290208 AAA
TAFORF
TAF AMD
KORF 290208Z 2902/2924 05009KT 1SM BR VCSH OVC002
      TEMPO 2903/2905 3SM +TSRA BR OVC004CB
     FM290500 05008KT 2SM -SHRA BR OVC002
     FM291200 03008KT 6SM BR OVC003
     FM291700 05006KT P6SM OVC015=



000
FTUS41 KAKQ 290126 AAA
TAFECG
TAF AMD
KECG 290126Z 2901/2924 03009KT 1SM BR OVC002
      TEMPO 2902/2905 3SM SHRA OVC004
     FM290500 05008KT 2SM BR OVC002
     FM291200 02006KT P6SM OVC008
     FM291600 01007KT P6SM OVC025=



000
FTUS41 KAKQ 282340
TAFPHF
TAF
KPHF 282340Z 2900/2924 06007KT 3SM BR OVC004
     FM290300 05005KT 2SM BR OVC002
     FM291400 04004KT 4SM BR OVC005
     FM291800 05006KT P6SM OVC012=



000
FTUS41 KAKQ 282340
TAFORF
TAF
KORF 282340Z 2900/2924 07009KT 1 1/2SM BR OVC002
     FM290200 05009KT 1SM BR OVC002
      TEMPO 2902/2905 1/2SM FG
     FM290500 05008KT 1SM -SHRA BR OVC002
     FM291200 03008KT 6SM BR OVC003
     FM291700 05006KT P6SM OVC015=



000
FTUS41 KAKQ 282340
TAFSBY
TAF
KSBY 282340Z 2900/2924 06007KT 1SM BR OVC004
     FM290400 05005KT 1SM BR OVC002
     FM290700 04005KT 1/2SM FG OVC002
     FM291300 06006KT 3SM BR OVC004
     FM291800 08005KT P6SM OVC012=



000
FTUS41 KAKQ 282340
TAFECG
TAF
KECG 282340Z 2900/2924 05008KT P6SM SCT050
      TEMPO 2900/2902 BKN008
     FM290200 05005KT P6SM OVC004
     FM290600 03007KT 3SM -SHRA OVC004
     FM291200 02006KT P6SM OVC008
     FM291600 01007KT P6SM OVC025=



000
FTUS41 KAKQ 282340
TAFPHF
TAF
KPHF 282340Z 2900/2924 06007KT 3SM BR OVC004
     FM290300 05005KT 2SM BR OVC002
     FM291400 04004KT 4SM BR OVC005
     FM291800 05006KT P6SM OVC012=



000
FTUS41 KAKQ 282340
TAFORF
TAF
KORF 282340Z 2900/2924 07009KT 1 1/2SM BR OVC002
     FM290200 05009KT 1SM BR OVC002
      TEMPO 2902/2905 1/2SM FG
     FM290500 05008KT 1SM -SHRA BR OVC002
     FM291200 03008KT 6SM BR OVC003
     FM291700 05006KT P6SM OVC015=



000
FTUS41 KAKQ 282340
TAFRIC
TAF
KRIC 282340Z 2900/2924 08006KT 1 1/2SM -DZ BR OVC003
     FM290200 06003KT 1SM -RA BR OVC002
     FM290800 03003KT 1/2SM FG OVC001
     FM291300 05004KT 1SM BR OVC003
     FM291800 02003KT P6SM OVC015=



000
FTUS41 KAKQ 282340
TAFECG
TAF
KECG 282340Z 2900/2924 05008KT P6SM SCT050
      TEMPO 2900/2902 BKN008
     FM290200 05005KT P6SM OVC004
     FM290600 03007KT 3SM -SHRA OVC004
     FM291200 02006KT P6SM OVC008
     FM291600 01007KT P6SM OVC025=



000
FTUS41 KAKQ 282340
TAFSBY
TAF
KSBY 282340Z 2900/2924 06007KT 1SM BR OVC004
     FM290400 05005KT 1SM BR OVC002
     FM290700 04005KT 1/2SM FG OVC002
     FM291300 06006KT 3SM BR OVC004
     FM291800 08005KT P6SM OVC012=



000
FTUS41 KAKQ 282340
TAFRIC
TAF
KRIC 282340Z 2900/2924 08006KT 1 1/2SM -DZ BR OVC003
     FM290200 06003KT 1SM -RA BR OVC002
     FM290800 03003KT 1/2SM FG OVC001
     FM291300 05004KT 1SM BR OVC003
     FM291800 02003KT P6SM OVC015=



000
FTUS41 KAKQ 282120 AAA
TAFORF
TAF AMD
KORF 282120Z 2821/2918 07007KT 5SM BR OVC004
      TEMPO 2822/2824 2SM BR OVC002
     FM290200 05009KT 5SM BR OVC004
     FM290500 05008KT 3SM -SHRA BR OVC004
     FM291200 03008KT 6SM BR OVC005=



000
FTUS41 KAKQ 282120 AAA
TAFORF
TAF AMD
KORF 282120Z 2821/2918 07007KT 5SM BR OVC004
      TEMPO 2822/2824 2SM BR OVC002
     FM290200 05009KT 5SM BR OVC004
     FM290500 05008KT 3SM -SHRA BR OVC004
     FM291200 03008KT 6SM BR OVC005=



000
FTUS41 KAKQ 282046 AAB
TAFECG
TAF AMD
KECG 282046Z 2821/2918 10006KT P6SM SCT050
     FM290100 05005KT P6SM OVC004
     FM290600 03007KT 3SM -SHRA OVC004
     FM291200 02006KT P6SM OVC008=



000
FTUS41 KAKQ 282046 AAB
TAFECG
TAF AMD
KECG 282046Z 2821/2918 10006KT P6SM SCT050
     FM290100 05005KT P6SM OVC004
     FM290600 03007KT 3SM -SHRA OVC004
     FM291200 02006KT P6SM OVC008=



000
FTUS41 KAKQ 282019 AAA
TAFSBY
TAF AMD
KSBY 282019Z 2820/2918 06008KT 4SM BR OVC005
      TEMPO 2820/2824 2SM BR OVC006
     FM290000 06010KT 2SM BR OVC004
     FM290600 04005KT 2SM -SHRA BR OVC006
     FM291200 08007KT 6SM BR OVC007=



000
FTUS41 KAKQ 281903 AAA
TAFECG
TAF AMD
KECG 281903Z 2819/2918 04003KT P6SM BKN007 BKN250
      TEMPO 2819/2823 FEW007 SCT050
     FM290200 02005KT P6SM OVC004
     FM290600 04007KT 3SM -SHRA OVC004
     FM291200 02006KT P6SM OVC008=



000
FTUS41 KAKQ 281903 AAA
TAFECG
TAF AMD
KECG 281903Z 2819/2918 04003KT P6SM BKN007 BKN250
      TEMPO 2819/2823 FEW007 SCT050
     FM290200 02005KT P6SM OVC004
     FM290600 04007KT 3SM -SHRA OVC004
     FM291200 02006KT P6SM OVC008=



000
FTUS41 KAKQ 281743
TAFECG
TAF
KECG 281743Z 2818/2918 04003KT P6SM BKN007 BKN250
     FM281930 07007KT P6SM BKN007 BKN200
      TEMPO 2820/2823 FEW007 SCT050
     FM290200 02005KT P6SM OVC004
     FM290600 04007KT 3SM -SHRA OVC004
     FM291200 02006KT P6SM OVC008=



000
FTUS41 KAKQ 281743
TAFORF
TAF
KORF 281743Z 2818/2918 08007KT P6SM OVC004
     FM290200 05009KT 5SM BR OVC004
     FM290500 05008KT 3SM -SHRA BR OVC004
     FM291200 03008KT 6SM BR OVC005=



000
FTUS41 KAKQ 281743
TAFPHF
TAF
KPHF 281743Z 2818/2918 09007KT 5SM -RA BR OVC005
     FM290200 05004KT 5SM BR OVC004
     FM290500 04004KT 3SM -SHRA BR OVC005
     FM291200 05005KT 5SM BR OVC006=



000
FTUS41 KAKQ 281743
TAFRIC
TAF
KRIC 281743Z 2818/2918 08006KT 3SM BR OVC004
     FM290200 04003KT 5SM BR OVC004
     FM290400 04003KT 2SM -SHRA BR OVC003
     FM291000 09004KT P6SM OVC005=



000
FTUS41 KAKQ 281743
TAFSBY
TAF
KSBY 281743Z 2818/2918 06008KT 6SM BR OVC005
     FM290200 07006KT 2SM BR OVC006
     FM290600 04005KT 2SM -SHRA BR OVC006
     FM291200 08007KT 6SM BR OVC007=



000
FTUS41 KAKQ 281552 AAA
TAFPHF
TAF AMD
KPHF 281552Z 2816/2912 09007KT 5SM -RA BR OVC005
      TEMPO 2816/2818 2SM -RA BR
     FM290200 05004KT 5SM BR OVC004=



000
FTUS41 KAKQ 281550 AAA
TAFORF
TAF AMD
KORF 281550Z 2816/2912 08007KT P6SM OVC004
     FM290200 05009KT 5SM BR OVC004=



000
FTUS41 KAKQ 281550 AAA
TAFRIC
TAF AMD
KRIC 281550Z 2816/2912 08006KT 3SM -RA BR OVC006
     FM290200 04003KT 5SM BR OVC004=



000
FTUS41 KAKQ 281542 AAB
TAFECG
TAF AMD
KECG 281542Z 2816/2912 10005KT P6SM OVC005
     FM281800 14003KT P6SM BKN007 BKN250
     FM290200 02005KT P6SM OVC004=



000
FTUS41 KAKQ 281450 AAB
TAFSBY
TAF AMD
KSBY 281450Z 2815/2912 05006KT 2SM -RA BR BKN008 OVC040
     FM281600 06008KT 4SM -RA BR OVC008
     FM282100 07006KT P6SM OVC008=



000
FTUS41 KAKQ 281251 AAA
TAFECG
TAF AMD
KECG 281251Z 2813/2912 10005KT P6SM SCT006
      TEMPO 2813/2816 BKN003
     FM281700 14003KT P6SM BKN015 BKN250
     FM290200 02005KT P6SM OVC004=



000
FTUS41 KAKQ 281238 AAA
TAFSBY
TAF AMD
KSBY 281238Z 2813/2912 03006KT P6SM SCT010 OVC040
      TEMPO 2813/2814 2SM -SHRA BR BKN010
     FM281400 05006KT 4SM -RA BR BKN025 OVC040
     FM281600 06008KT 4SM -RA BR OVC008
     FM282100 07006KT P6SM OVC008=



000
FTUS41 KAKQ 281138 CCA
TAFECG
TAF COR
KECG 281138Z 2812/2912 07005KT P6SM SCT004
     FM281300 10005KT P6SM SCT006
     FM281700 14003KT P6SM BKN015 BKN250
     FM290200 02005KT P6SM OVC004=



000
FTUS41 KAKQ 281138 CCA
TAFECG
TAF COR
KECG 281138Z 2812/2912 07005KT P6SM SCT004
     FM281300 10005KT P6SM SCT006
     FM281700 14003KT P6SM BKN015 BKN250
     FM290200 02005KT P6SM OVC004=



000
FTUS41 KAKQ 281135
TAFECG
TAF
KECG 281135Z 2812/2912 07005KT P6SM OVC004
     FM281300 10005KT P6SM OVC006
     FM281700 14003KT P6SM BKN015 BKN250
     FM290200 02005KT P6SM OVC004=



000
FTUS41 KAKQ 281135
TAFORF
TAF
KORF 281135Z 2812/2912 10003KT 5SM -RA OVC005
     FM281400 08007KT P6SM OVC008
     FM290200 05009KT 5SM BR OVC004=



000
FTUS41 KAKQ 281135
TAFSBY
TAF
KSBY 281135Z 2812/2912 03006KT P6SM SCT010 OVC040
      TEMPO 2812/2814 BKN010
     FM281400 05006KT 4SM -RA BR BKN025 OVC040
     FM281600 06008KT 4SM -RA BR OVC008
     FM282100 07006KT P6SM OVC008=



000
FTUS41 KAKQ 281135
TAFECG
TAF
KECG 281135Z 2812/2912 07005KT P6SM OVC004
     FM281300 10005KT P6SM OVC006
     FM281700 14003KT P6SM BKN015 BKN250
     FM290200 02005KT P6SM OVC004=



000
FTUS41 KAKQ 281135
TAFRIC
TAF
KRIC 281135Z 2812/2912 08004KT 4SM -RA BR OVC003
     FM281400 08006KT P6SM OVC008
     FM290200 04003KT 5SM BR OVC004=



000
FTUS41 KAKQ 281135
TAFPHF
TAF
KPHF 281135Z 2812/2912 08004KT 6SM -RA OVC006
     FM281400 08007KT P6SM OVC009
     FM290200 05004KT 5SM BR OVC004=



000
FTUS41 KAKQ 281135
TAFORF
TAF
KORF 281135Z 2812/2912 10003KT 5SM -RA OVC005
     FM281400 08007KT P6SM OVC008
     FM290200 05009KT 5SM BR OVC004=



000
FTUS41 KAKQ 281135
TAFPHF
TAF
KPHF 281135Z 2812/2912 08004KT 6SM -RA OVC006
     FM281400 08007KT P6SM OVC009
     FM290200 05004KT 5SM BR OVC004=



000
FTUS41 KAKQ 281135
TAFRIC
TAF
KRIC 281135Z 2812/2912 08004KT 4SM -RA BR OVC003
     FM281400 08006KT P6SM OVC008
     FM290200 04003KT 5SM BR OVC004=



000
FTUS41 KAKQ 281135
TAFSBY
TAF
KSBY 281135Z 2812/2912 03006KT P6SM SCT010 OVC040
      TEMPO 2812/2814 BKN010
     FM281400 05006KT 4SM -RA BR BKN025 OVC040
     FM281600 06008KT 4SM -RA BR OVC008
     FM282100 07006KT P6SM OVC008=



000
FTUS41 KAKQ 281004 AAB
TAFECG
TAF AMD
KECG 281004Z 2810/2906 07005KT P6SM -RA OVC004
     FM281200 09003KT P6SM OVC006
     FM281300 10005KT P6SM BKN020 BKN250
     FM281800 14006KT P6SM BKN050 BKN120
     FM290200 02005KT P6SM OVC004=



000
FTUS41 KAKQ 281004 AAB
TAFECG
TAF AMD
KECG 281004Z 2810/2906 07005KT P6SM -RA OVC004
     FM281200 09003KT P6SM OVC006
     FM281300 10005KT P6SM BKN020 BKN250
     FM281800 14006KT P6SM BKN050 BKN120
     FM290200 02005KT P6SM OVC004=



000
FTUS41 KAKQ 281003 AAB
TAFSBY
TAF AMD
KSBY 281003Z 2810/2906 02003KT P6SM OVC010
     FM281100 04003KT P6SM OVC008
     FM281400 06006KT P6SM BKN015 OVC040
     FM282200 07006KT P6SM OVC008=



000
FTUS41 KAKQ 281002 AAB
TAFORF
TAF AMD
KORF 281002Z 2810/2906 12003KT 3SM -SHRA BKN005 OVC008
     FM281100 09005KT 5SM -SHRA OVC005
     FM281600 08007KT P6SM OVC008
     FM290000 05009KT 5SM BR OVC004=



000
FTUS41 KAKQ 281002 AAB
TAFPHF
TAF AMD
KPHF 281002Z 2810/2906 08004KT P6SM OVC009
     FM281100 08004KT 5SM BR OVC005
     FM281600 08007KT P6SM OVC008
     FM290000 05007KT 5SM BR OVC004=



000
FTUS41 KAKQ 280934 AAB
TAFRIC
TAF AMD
KRIC 280934Z 2810/2906 08004KT 1SM -RA BR OVC003
     FM281200 08005KT 3SM BR OVC003
     FM281500 08006KT P6SM OVC008
     FM290000 06003KT P6SM OVC004=



000
FTUS41 KAKQ 280923 AAA
TAFPHF
TAF AMD
KPHF 280923Z 2809/2906 08004KT P6SM SCT005 OVC011
     FM281100 08004KT 5SM BR OVC005
     FM281600 08007KT P6SM OVC008
     FM290000 05007KT 5SM BR OVC004=



000
FTUS41 KAKQ 280923 AAA
TAFPHF
TAF AMD
KPHF 280923Z 2809/2906 08004KT P6SM SCT005 OVC011
     FM281100 08004KT 5SM BR OVC005
     FM281600 08007KT P6SM OVC008
     FM290000 05007KT 5SM BR OVC004=



000
FTUS41 KAKQ 280922 AAA
TAFORF
TAF AMD
KORF 280922Z 2809/2906 12003KT 5SM -SHRA SCT005 OVC010
     FM281100 09005KT 5SM BR OVC005
     FM281600 08007KT P6SM OVC008
     FM290000 05009KT 5SM BR OVC004=



000
FTUS41 KAKQ 280920 AAA
TAFSBY
TAF AMD
KSBY 280920Z 2809/2906 02003KT P6SM OVC050
     FM281100 04003KT P6SM OVC008
     FM281400 06006KT P6SM BKN015 OVC040
     FM282200 07006KT P6SM OVC008=



000
FTUS41 KAKQ 280800 AAA
TAFECG
TAF AMD
KECG 280800Z 2808/2906 07005KT 4SM -RA BR OVC005
     FM281000 09003KT P6SM OVC006
     FM281300 10005KT P6SM BKN020 BKN250
     FM281800 14006KT P6SM BKN050 BKN120
     FM290200 02005KT P6SM OVC004=



000
FTUS41 KAKQ 280759 AAA
TAFRIC
TAF AMD
KRIC 280759Z 2808/2906 08004KT 2SM BR OVC004
     FM281500 08006KT P6SM OVC008
     FM290000 06003KT P6SM OVC004=



000
FTUS41 KAKQ 280540
TAFSBY
TAF
KSBY 280540Z 2806/2906 04003KT P6SM OVC008
     FM281400 06006KT P6SM BKN015 OVC040
     FM282200 07006KT P6SM OVC008=



000
FTUS41 KAKQ 280540
TAFORF
TAF
KORF 280540Z 2806/2906 09004KT P6SM OVC005
     FM280800 05005KT 5SM BR OVC003
     FM281600 08007KT P6SM OVC008
     FM290000 05009KT 5SM BR OVC004=



000
FTUS41 KAKQ 280540
TAFRIC
TAF
KRIC 280540Z 2806/2906 08004KT 4SM BR OVC004
     FM281500 08006KT P6SM OVC008
     FM290000 06003KT P6SM OVC004=



000
FTUS41 KAKQ 280540
TAFECG
TAF
KECG 280540Z 2806/2906 07005KT 6SM -RA OVC004
     FM281000 09003KT P6SM OVC006
     FM281300 10005KT P6SM BKN020 BKN250
     FM281800 14006KT P6SM BKN050 BKN120
     FM290200 02005KT P6SM OVC004=



000
FTUS41 KAKQ 280540
TAFPHF
TAF
KPHF 280540Z 2806/2906 08008KT P6SM OVC006
     FM280800 08004KT 5SM BR OVC003
     FM281600 08007KT P6SM OVC008
     FM290000 05007KT 5SM BR OVC004=



000
FTUS41 KAKQ 280326 AAA
TAFPHF
TAF AMD
KPHF 280326Z 2803/2824 07008KT P6SM OVC006
     FM280600 09005KT 3SM -RA BR OVC005
     FM280800 06004KT 2SM -DZ BR OVC003
     FM281500 08007KT 5SM BR OVC008=



000
FTUS41 KAKQ 280325 AAB
TAFORF
TAF AMD
KORF 280325Z 2803/2824 06011KT P6SM OVC006
     FM280600 07007KT 3SM -RA BR OVC003
     FM280800 08006KT 2SM -DZ BR OVC002
     FM281500 07007KT 4SM BR OVC005=



000
FTUS41 KAKQ 280325 AAB
TAFORF
TAF AMD
KORF 280325Z 2803/2824 06011KT P6SM OVC006
     FM280600 07007KT 3SM -RA BR OVC003
     FM280800 08006KT 2SM -DZ BR OVC002
     FM281500 07007KT 4SM BR OVC005=



000
FTUS41 KAKQ 280324 AAB
TAFRIC
TAF AMD
KRIC 280324Z 2803/2824 07005KT P6SM OVC006
     FM280600 07004KT 3SM -RA BR BKN006 OVC015
     FM281000 05006KT 2SM -DZ BR OVC003
     FM281500 07006KT 4SM BR OVC008=



000
FTUS41 KAKQ 280152 AAA
TAFRIC
TAF AMD
KRIC 280152Z 2802/2824 05008KT 3SM BR OVC005
      TEMPO 2802/2804 6SM -RA BR SCT005 BKN040
     FM280400 07004KT 3SM -RA BR BKN006 OVC015
     FM281000 05006KT 2SM -DZ BR OVC003
     FM281500 07006KT 4SM BR OVC008=



000
FTUS41 KAKQ 280039 AAA
TAFORF
TAF AMD
KORF 280039Z 2801/2824 06011KT 4SM SHRA VCTS OVC004CB
     FM280300 07007KT 3SM -RA BR OVC003
     FM280800 08006KT 2SM -DZ BR OVC002
     FM281500 07007KT 4SM BR OVC005=



000
FTUS41 KAKQ 280039 AAA
TAFORF
TAF AMD
KORF 280039Z 2801/2824 06011KT 4SM SHRA VCTS OVC004CB
     FM280300 07007KT 3SM -RA BR OVC003
     FM280800 08006KT 2SM -DZ BR OVC002
     FM281500 07007KT 4SM BR OVC005=



000
FTUS41 KAKQ 272359 CCA
TAFECG
TAF COR
KECG 272359Z 2800/2824 06009KT 6SM -SHRA VCTS OVC050CB
      TEMPO 2800/2804 BKN008 OVC015CB
     FM280400 10005KT 3SM -SHRA BR OVC015
     FM281600 21010KT P6SM BKN050=



000
FTUS41 KAKQ 272340
TAFSBY
TAF
KSBY 272340Z 2800/2824 05008KT P6SM OVC015
     FM280900 08005KT P6SM OVC008
     FM281500 07009KT 5SM -RA BR OVC015=



000
FTUS41 KAKQ 272340
TAFRIC
TAF
KRIC 272340Z 2800/2824 05008KT 6SM -SHRA OVC015
     FM280300 07004KT 3SM -RA BR BKN006 OVC015
     FM281000 05006KT 2SM -DZ BR OVC003
     FM281500 07006KT 4SM BR OVC008=



000
FTUS41 KAKQ 272340
TAFPHF
TAF
KPHF 272340Z 2800/2824 07008KT P6SM OVC012
      TEMPO 2800/2804 4SM -RA BR OVC008
     FM280400 09005KT 3SM -RA BR OVC005
     FM280800 06004KT 2SM -DZ BR OVC003
     FM281500 08007KT 5SM BR OVC008=



000
FTUS41 KAKQ 272340
TAFECG
TAF
KECG 272340Z 2800/2824 06009KT 6SM -SHRA VCTS OVC050CB
      TEMPO 2800/2804 BKN008 OVC015CB
     FM280500 10005KT 3SM -SHRA BR OVC015
     FM281600 21010KT P6SM BKN050=



000
FTUS41 KAKQ 272340
TAFORF
TAF
KORF 272340Z 2800/2824 05012G17KT P6SM OVC004
     FM280200 06008KT 5SM SHRA VCTS OVC004CB
     FM280400 07007KT 3SM -RA BR OVC003
     FM280800 08006KT 2SM -DZ BR OVC002
     FM281500 07007KT 4SM BR OVC005=



000
FTUS41 KAKQ 272300 AAB
TAFRIC
TAF AMD
KRIC 272300Z 2723/2818 04004KT P6SM SCT015 OVC100
      TEMPO 2723/2724 BKN012
     FM280000 07006KT 6SM -SHRA OVC015
     FM280300 09004KT 3SM -SHRA BR BKN006 OVC050
     FM281600 09006KT 6SM -SHRA OVC008=



000
FTUS41 KAKQ 272202 AAD
TAFORF
TAF AMD
KORF 272202Z 2722/2818 05012G17KT P6SM OVC004
      TEMPO 2722/2802 OVC006
     FM280200 07007KT 5SM -SHRA OVC004=



000
FTUS41 KAKQ 272044 AAA
TAFPHF
TAF AMD
KPHF 272044Z 2721/2818 07010G17KT P6SM BKN012
      TEMPO 2722/2724 OVC008
     FM280000 07008KT 5SM BR OVC008
     FM280300 09005KT 3SM -SHRA BR OVC005
     FM281400 07008KT 6SM -SHRA BR OVC008=



000
FTUS41 KAKQ 272041 AAC
TAFORF
TAF AMD
KORF 272041Z 2721/2818 05012G17KT P6SM OVC006
     FM280200 07007KT 5SM -SHRA OVC004=



000
FTUS41 KAKQ 271937 AAB
TAFORF
TAF AMD
KORF 271937Z 2720/2818 05012G17KT P6SM BKN006 BKN100
      TEMPO 2720/2721 SCT010 BKN120
     FM272100 04011KT P6SM FEW020 OVC080
     FM280000 07009KT 6SM -SHRA OVC007
     FM280500 09005KT 6SM -SHRA BKN008 OVC050=



000
FTUS41 KAKQ 271746 RRA
TAFORF
TAF
KORF 271746Z 2718/2818 05012KT P6SM SCT008 BKN100
      TEMPO 2718/2719 BKN007
     FM271900 04011KT P6SM FEW020 OVC080
     FM280000 07009KT 6SM -SHRA OVC007
     FM280500 09005KT 6SM -SHRA BKN008 OVC050=



000
FTUS41 KAKQ 271746 RRA
TAFPHF
TAF
KPHF 271746Z 2718/2818 02006KT P6SM BKN100
     FM280000 08009KT 6SM -SHRA OVC050
     FM280500 09005KT 3SM -SHRA BR OVC005
     FM281400 07008KT 6SM -SHRA BR OVC008=



000
FTUS41 KAKQ 271746 RRA
TAFECG
TAF
KECG 271746Z 2718/2818 02007KT P6SM BKN080
     FM280000 08006KT 6SM -SHRA OVC050
     FM280500 10005KT 3SM -SHRA BR BKN008 OVC050
     FM281600 21007KT 6SM -SHRA BKN012=



000
FTUS41 KAKQ 271746 RRA
TAFRIC
TAF
KRIC 271746Z 2718/2818 04004KT P6SM SCT015 OVC100
      TEMPO 2718/2720 BKN009
     FM280000 08006KT 6SM -SHRA SCT015 OVC050
     FM280300 09004KT 3SM -SHRA BR BKN006 OVC050
     FM281600 09006KT 6SM -SHRA OVC008=



000
FTUS41 KAKQ 271746 RRA
TAFSBY
TAF
KSBY 271746Z 2718/2818 05008KT P6SM OVC009
     FM280200 08005KT 3SM -SHRA BR OVC008
     FM281300 07009KT 5SM -SHRA BR OVC008=



000
FTUS41 KAKQ 271659 AAA
TAFORF
TAF AMD
KORF 271659Z 2717/2812 05012KT P6SM SCT008 BKN100
      TEMPO 2717/2719 BKN007
     FM271900 04011KT P6SM FEW020 OVC080
     FM280000 07009KT 6SM -SHRA OVC050
     FM280500 09005KT 6SM -SHRA BKN008 OVC050=



000
FTUS41 KAKQ 271659 AAA
TAFORF
TAF AMD
KORF 271659Z 2717/2812 05012KT P6SM SCT008 BKN100
      TEMPO 2717/2719 BKN007
     FM271900 04011KT P6SM FEW020 OVC080
     FM280000 07009KT 6SM -SHRA OVC050
     FM280500 09005KT 6SM -SHRA BKN008 OVC050=



    US Dept of Commerce
    National Oceanic and Atmospheric Administration
    National Weather Service
    1325 East West Highway
    Silver Spring, MD 20910
    Page Author: NWS Internet Services Team
Disclaimer
Information Quality
Credits
Glossary
Privacy Policy
Freedom of Information Act (FOIA)
About Us
Career Opportunities